Earlton, Canada
Current Conditions -  °F | °C
As of 5:02 AM on Sunday 26 Oct 2014 (Local Time) from CYXR Reporting Station
Light Rain Light Rain  
Wind Chill: 28°   Ceiling: 3400
Heat Index: 37°   Visibility: 9mi
Dew Point: 36°   Wind: 17mph
Humidity: 93%   Direction: 290°WNW
Pressure: 29.51"   Gusts: 23mph
Location:  47.71°N, 79.82°W
Report Text: CYXR 260902Z AUTO 29015G20KT 9SM -RA FEW015 OVC034 03/02 A2951 RMK SLP002
Loading
Personal Weather Stations






























Interactive Weather Map New forecast layout! Learn more

10-Day Weather Forecast

Advertisements
Track Severe Weather on mobile